Time;durP1;ratioP1;P1;durP2;ratioP2;P2;SDS_P1;SDS_P2;PMS_P1;PMS_P2;Temp;Humidity;BMP_temperature;BMP_pressure;BME280_temperature;BME280_humidity;BME280_pressure;Samples;Min_cycle;Max_cycle;Signal;HPM_P1;HPM_P2
2023/06/08 00:00:00;;;;;;;10.50;7.00;;;14.70;64.90;;;;;;5033959;28;20176;-64
2023/06/08 00:02:28;;;;;;;14.23;8.82;;;14.70;64.80;;;;;;5031073;28;20034;-64
2023/06/08 00:04:54;;;;;;;10.20;6.68;;;14.70;65.10;;;;;;5025148;28;20049;-64
2023/06/08 00:07:21;;;;;;;12.15;7.72;;;14.60;65.00;;;;;;5015225;28;20049;-64
2023/06/08 00:09:47;;;;;;;13.77;8.57;;;14.60;65.20;;;;;;4998073;28;20042;-64
2023/06/08 00:12:13;;;;;;;16.58;8.13;;;14.60;65.40;;;;;;5029591;28;20087;-64
2023/06/08 00:14:39;;;;;;;10.02;6.30;;;14.50;65.40;;;;;;5033335;28;20053;-64
2023/06/08 00:17:05;;;;;;;11.60;6.38;;;14.50;65.40;;;;;;5033623;28;20052;-64
2023/06/08 00:19:37;;;;;;;11.70;7.55;;;14.50;65.70;;;;;;4997968;28;20137;-64
2023/06/08 00:22:04;;;;;;;12.25;6.78;;;14.40;65.80;;;;;;5020000;28;20559;-64
2023/06/08 00:24:37;;;;;;;8.73;6.18;;;14.40;65.80;;;;;;5013996;28;20042;-64
2023/06/08 00:27:05;;;;;;;11.95;6.95;;;14.40;66.00;;;;;;5015051;28;20498;-64
2023/06/08 00:29:31;;;;;;;11.32;6.25;;;14.40;66.00;;;;;;5013461;28;20120;-64
2023/06/08 00:31:57;;;;;;;11.50;7.70;;;14.30;66.20;;;;;;5025542;28;20058;-64
2023/06/08 00:34:25;;;;;;;10.00;5.55;;;14.30;66.40;;;;;;5043761;28;20049;-64
2023/06/08 00:36:50;;;;;;;12.32;6.72;;;14.20;66.50;;;;;;5021287;28;20060;-64
2023/06/08 00:39:16;;;;;;;13.52;6.85;;;14.20;66.60;;;;;;5034429;28;20042;-64
2023/06/08 00:41:42;;;;;;;11.90;6.30;;;14.10;66.80;;;;;;5023811;28;20038;-64
2023/06/08 00:44:09;;;;;;;10.38;6.32;;;14.10;67.00;;;;;;5014480;28;20070;-64
2023/06/08 00:46:36;;;;;;;11.95;6.30;;;14.10;67.10;;;;;;5014360;28;20037;-64
2023/06/08 00:49:02;;;;;;;11.35;5.90;;;14.10;67.30;;;;;;5014303;28;20052;-64
2023/06/08 00:51:33;;;;;;;9.57;5.80;;;14.10;67.20;;;;;;5014054;28;20049;-64
2023/06/08 00:54:00;;;;;;;11.32;6.60;;;14.10;67.40;;;;;;5017997;28;20053;-64
2023/06/08 00:56:27;;;;;;;12.95;6.10;;;14.10;67.30;;;;;;5027218;28;20469;-64
2023/06/08 00:58:56;;;;;;;14.15;7.07;;;14.10;67.50;;;;;;5033908;28;20120;-64
2023/06/08 01:01:25;;;;;;;9.20;5.38;;;14.10;67.40;;;;;;5026556;28;20066;-64
2023/06/08 01:03:51;;;;;;;11.32;5.82;;;14.00;67.40;;;;;;5015069;28;20053;-64
2023/06/08 01:06:20;;;;;;;10.00;5.53;;;14.10;67.50;;;;;;5048950;28;20480;-64
2023/06/08 01:09:21;;;;;;;10.73;5.60;;;14.00;67.60;;;;;;5013625;28;20400;-64
2023/06/08 01:12:31;;;;;;;12.15;6.32;;;14.10;67.50;;;;;;5020178;28;20048;-64
2023/06/08 01:15:05;;;;;;;9.57;5.50;;;14.10;67.40;;;;;;4956602;28;20481;-64
2023/06/08 01:17:45;;;;;;;9.50;5.95;;;14.10;67.50;;;;;;4956667;28;20474;-64
2023/06/08 01:20:29;;;;;;;7.75;4.97;;;14.00;67.80;;;;;;5013262;28;20128;-64
2023/06/08 01:23:25;;;;;;;10.23;5.93;;;14.00;67.60;;;;;;4996629;28;20077;-64
2023/06/08 01:25:52;;;;;;;8.80;5.35;;;14.00;67.70;;;;;;5005018;28;20092;-64
2023/06/08 01:28:18;;;;;;;11.10;6.18;;;14.00;67.80;;;;;;4994978;28;20038;-64
2023/06/08 01:30:48;;;;;;;9.25;5.82;;;14.00;67.90;;;;;;4995610;28;20061;-64
2023/06/08 01:33:32;;;;;;;8.07;4.97;;;14.00;67.90;;;;;;5015942;28;20046;-64
2023/06/08 01:36:16;;;;;;;7.53;5.47;;;14.10;67.80;;;;;;5015776;28;20046;-63
2023/06/08 01:39:03;;;;;;;10.32;4.82;;;14.10;67.80;;;;;;5033394;28;20067;-63
2023/06/08 01:41:35;;;;;;;8.57;4.75;;;14.10;67.60;;;;;;5023933;28;20096;-64
2023/06/08 01:44:04;;;;;;;7.03;4.45;;;14.10;67.60;;;;;;5027181;28;20485;-64
2023/06/08 01:46:31;;;;;;;13.82;6.07;;;14.10;67.50;;;;;;5013511;28;20404;-64
2023/06/08 01:49:01;;;;;;;13.27;5.47;;;14.20;67.60;;;;;;5013460;28;20121;-64
2023/06/08 01:51:28;;;;;;;8.45;5.05;;;14.20;67.60;;;;;;5019784;28;20069;-64
2023/06/08 01:54:02;;;;;;;7.55;4.45;;;14.20;67.60;;;;;;5033256;28;20076;-64
2023/06/08 01:56:31;;;;;;;11.18;6.28;;;14.20;67.40;;;;;;5024747;28;20026;-64
2023/06/08 01:58:57;;;;;;;8.63;5.40;;;14.20;67.50;;;;;;5020223;28;20390;-64
2023/06/08 02:01:23;;;;;;;11.63;5.18;;;14.30;67.50;;;;;;5018178;28;20044;-64
2023/06/08 02:03:49;;;;;;;10.05;5.43;;;14.30;67.40;;;;;;5029395;28;20436;-64
2023/06/08 02:06:15;;;;;;;11.40;5.55;;;14.30;67.20;;;;;;5031981;28;20110;-64
2023/06/08 02:08:41;;;;;;;11.13;6.82;;;14.30;67.20;;;;;;5031486;28;20060;-64
2023/06/08 02:11:08;;;;;;;11.00;5.95;;;14.30;67.20;;;;;;5028053;28;20176;-64
2023/06/08 02:13:37;;;;;;;10.30;6.60;;;14.30;67.00;;;;;;5013205;28;20056;-64
2023/06/08 02:16:02;;;;;;;7.78;5.50;;;14.30;67.00;;;;;;4995963;28;20039;-64
2023/06/08 02:18:28;;;;;;;9.85;5.97;;;14.30;66.80;;;;;;5021327;28;20469;-64
2023/06/08 02:20:55;;;;;;;12.65;6.93;;;14.30;66.80;;;;;;5029953;28;20164;-64
2023/06/08 02:23:20;;;;;;;14.52;7.10;;;14.30;66.70;;;;;;5013178;28;20052;-64
2023/06/08 02:25:49;;;;;;;13.70;6.50;;;14.30;66.70;;;;;;5013088;28;20042;-64
2023/06/08 02:28:15;;;;;;;11.82;7.47;;;14.30;66.80;;;;;;5011705;28;20042;-64
2023/06/08 02:30:41;;;;;;;13.52;7.70;;;14.30;66.80;;;;;;5014000;28;20049;-64
2023/06/08 02:33:07;;;;;;;11.85;6.68;;;14.30;66.80;;;;;;5028637;28;20397;-64
2023/06/08 02:35:34;;;;;;;15.02;7.90;;;14.20;66.80;;;;;;5022028;28;20508;-64
2023/06/08 02:38:00;;;;;;;14.85;8.15;;;14.20;66.90;;;;;;5013069;28;20042;-64
2023/06/08 02:40:26;;;;;;;14.45;7.65;;;14.20;67.00;;;;;;4995333;28;20088;-64
2023/06/08 02:42:51;;;;;;;10.77;7.35;;;14.20;67.10;;;;;;5024937;28;20046;-64
2023/06/08 02:45:17;;;;;;;12.80;7.60;;;14.10;67.20;;;;;;5012946;28;20042;-64
2023/06/08 02:47:43;;;;;;;16.60;9.07;;;14.10;67.40;;;;;;5012814;28;20107;-64
2023/06/08 02:50:08;;;;;;;19.38;9.93;;;14.10;67.50;;;;;;5012836;28;20045;-64
2023/06/08 02:52:34;;;;;;;13.80;8.60;;;14.10;67.60;;;;;;5027829;28;20610;-63
2023/06/08 02:55:00;;;;;;;21.23;10.05;;;14.00;67.70;;;;;;5030862;28;20488;-64
2023/06/08 02:57:26;;;;;;;11.70;6.82;;;14.00;67.90;;;;;;5031092;28;20049;-63
2023/06/08 02:59:52;;;;;;;19.08;8.40;;;14.00;68.00;;;;;;5019945;28;20053;-63
2023/06/08 03:02:18;;;;;;;15.82;9.27;;;14.00;68.00;;;;;;5027374;28;20418;-64
2023/06/08 03:04:44;;;;;;;17.92;10.18;;;14.00;68.20;;;;;;5031148;28;20096;-64
2023/06/08 03:07:17;;;;;;;11.70;9.18;;;14.00;68.30;;;;;;5025523;28;20092;-64
2023/06/08 03:09:43;;;;;;;16.95;10.52;;;13.90;68.30;;;;;;5008040;28;20117;-64
2023/06/08 03:12:12;;;;;;;23.27;11.57;;;13.90;68.40;;;;;;5023138;28;20125;-64
2023/06/08 03:14:40;;;;;;;23.40;11.23;;;13.90;68.40;;;;;;5026976;28;20053;-64
2023/06/08 03:17:07;;;;;;;12.20;7.72;;;13.90;68.60;;;;;;5036226;28;20112;-64
2023/06/08 03:19:33;;;;;;;20.10;11.57;;;13.90;68.70;;;;;;5035409;28;20488;-64
2023/06/08 03:22:04;;;;;;;14.93;8.63;;;13.80;68.80;;;;;;5021281;28;20133;-64
2023/06/08 03:24:34;;;;;;;13.32;9.77;;;13.80;68.80;;;;;;5016047;28;20104;-64
2023/06/08 03:27:01;;;;;;;13.30;7.88;;;13.90;68.90;;;;;;5015982;28;20038;-64
2023/06/08 03:29:27;;;;;;;11.25;7.25;;;13.90;68.80;;;;;;5030827;28;20042;-64
2023/06/08 03:31:53;;;;;;;16.48;10.27;;;13.90;68.80;;;;;;5039950;28;20492;-64
2023/06/08 03:34:20;;;;;;;16.38;9.82;;;13.90;68.90;;;;;;5015822;28;20137;-64
2023/06/08 03:36:46;;;;;;;14.52;9.43;;;13.90;69.00;;;;;;5014670;28;20073;-64
2023/06/08 03:39:12;;;;;;;16.38;10.35;;;13.90;69.00;;;;;;5014700;28;20038;-64
2023/06/08 03:41:38;;;;;;;18.85;11.05;;;13.90;69.10;;;;;;5013864;28;20092;-64
2023/06/08 03:44:03;;;;;;;17.65;9.07;;;13.90;69.20;;;;;;5012147;28;20049;-64
2023/06/08 03:46:29;;;;;;;13.80;8.85;;;13.90;69.00;;;;;;5015742;28;20049;-64
2023/06/08 03:48:55;;;;;;;12.63;7.75;;;13.90;69.00;;;;;;5027976;28;20041;-64
2023/06/08 03:51:21;;;;;;;17.85;10.82;;;14.00;69.10;;;;;;5024745;28;20052;-65
2023/06/08 03:53:48;;;;;;;12.65;7.90;;;13.90;69.10;;;;;;5031979;28;20041;-64
2023/06/08 03:56:14;;;;;;;18.02;10.05;;;14.00;69.00;;;;;;5033420;28;20456;-67
2023/06/08 03:58:41;;;;;;;14.15;9.30;;;14.00;69.10;;;;;;5020037;28;20085;-67
2023/06/08 04:01:10;;;;;;;12.00;7.47;;;14.00;69.10;;;;;;5033990;28;20118;-67
2023/06/08 04:03:36;;;;;;;13.80;8.40;;;14.00;69.10;;;;;;5023665;28;20053;-66
2023/06/08 04:06:03;;;;;;;12.80;8.45;;;14.00;69.10;;;;;;5031851;28;20041;-66
2023/06/08 04:08:31;;;;;;;13.32;7.57;;;14.00;69.20;;;;;;5033951;28;20052;-67
2023/06/08 04:11:00;;;;;;;15.82;8.23;;;14.00;69.10;;;;;;5034788;28;20116;-67
2023/06/08 04:13:26;;;;;;;18.40;10.30;;;14.10;69.20;;;;;;5023956;28;20044;-67
2023/06/08 04:15:52;;;;;;;12.25;8.40;;;14.10;69.20;;;;;;5013820;28;20118;-67
2023/06/08 04:18:18;;;;;;;20.70;10.95;;;14.10;69.20;;;;;;5025690;28;20507;-67
2023/06/08 04:20:43;;;;;;;13.00;7.03;;;14.10;69.20;;;;;;5014973;28;20041;-67
2023/06/08 04:23:11;;;;;;;18.48;10.20;;;14.10;69.20;;;;;;5013856;28;20045;-67
2023/06/08 04:25:36;;;;;;;16.45;10.65;;;14.10;69.20;;;;;;5013801;28;20598;-67
2023/06/08 04:28:03;;;;;;;14.98;9.55;;;14.10;69.50;;;;;;5013830;28;20129;-67
2023/06/08 04:30:29;;;;;;;15.48;9.90;;;14.20;69.60;;;;;;4997385;28;20041;-67
2023/06/08 04:32:55;;;;;;;16.70;9.77;;;14.10;69.70;;;;;;5013389;28;20153;-67
2023/06/08 04:35:21;;;;;;;13.38;9.05;;;14.20;69.70;;;;;;5014714;28;20052;-67
2023/06/08 04:37:47;;;;;;;18.10;10.00;;;14.10;69.70;;;;;;5025206;28;20041;-67
2023/06/08 04:40:13;;;;;;;20.48;11.05;;;14.10;69.80;;;;;;5013551;28;20050;-67
2023/06/08 04:42:40;;;;;;;13.88;8.75;;;14.10;69.90;;;;;;5013515;28;20050;-67
2023/06/08 04:45:08;;;;;;;20.60;9.85;;;14.10;70.00;;;;;;5031602;28;20050;-67
2023/06/08 04:47:37;;;;;;;16.50;8.88;;;14.10;70.30;;;;;;5033072;28;20128;-67
2023/06/08 04:50:10;;;;;;;15.75;9.43;;;14.10;70.30;;;;;;5034330;28;20484;-67
2023/06/08 04:52:40;;;;;;;17.92;9.60;;;14.10;70.30;;;;;;5032420;28;20045;-67
2023/06/08 04:55:19;;;;;;;17.75;10.02;;;14.10;70.20;;;;;;5022544;28;20044;-67
2023/06/08 04:57:45;;;;;;;17.33;9.95;;;14.10;70.20;;;;;;5021288;28;20050;-67
2023/06/08 05:00:12;;;;;;;16.95;9.82;;;14.10;70.20;;;;;;5032717;28;20041;-67
2023/06/08 05:02:38;;;;;;;17.48;9.70;;;14.10;70.00;;;;;;5014359;28;20393;-67
2023/06/08 05:05:05;;;;;;;16.55;9.70;;;14.10;70.00;;;;;;5014150;28;20041;-67
2023/06/08 05:07:31;;;;;;;19.45;10.52;;;14.10;70.20;;;;;;5026872;28;20058;-67
2023/06/08 05:10:01;;;;;;;13.55;8.95;;;14.10;70.20;;;;;;5048464;28;20037;-67
2023/06/08 05:12:29;;;;;;;19.17;10.20;;;14.20;70.30;;;;;;4977220;28;20053;-67
2023/06/08 05:14:55;;;;;;;19.85;10.00;;;14.20;70.30;;;;;;5026628;28;20477;-67
2023/06/08 05:17:22;;;;;;;13.85;8.75;;;14.20;70.20;;;;;;5033857;28;20044;-67
2023/06/08 05:19:51;;;;;;;15.15;9.15;;;14.20;70.10;;;;;;5015894;28;20048;-67
2023/06/08 05:22:16;;;;;;;16.63;9.77;;;14.30;70.10;;;;;;5033720;28;20077;-67
2023/06/08 05:24:42;;;;;;;13.68;8.63;;;14.30;70.00;;;;;;5033806;28;20077;-67
2023/06/08 05:27:08;;;;;;;11.40;7.88;;;14.30;69.80;;;;;;5027157;28;20115;-68
2023/06/08 05:29:34;;;;;;;19.05;9.25;;;14.30;69.70;;;;;;5030546;28;20404;-67
2023/06/08 05:32:00;;;;;;;17.15;9.85;;;14.40;69.80;;;;;;5013653;28;20065;-67
2023/06/08 05:34:27;;;;;;;17.92;9.75;;;14.40;69.80;;;;;;5013824;28;20104;-67
2023/06/08 05:36:56;;;;;;;19.48;9.68;;;14.40;69.90;;;;;;5011950;28;20495;-67
2023/06/08 05:39:22;;;;;;;14.63;9.23;;;14.50;70.10;;;;;;5022507;28;20042;-67
2023/06/08 05:41:48;;;;;;;16.30;9.85;;;14.60;70.00;;;;;;5012290;28;20042;-67
2023/06/08 05:44:13;;;;;;;15.95;9.77;;;14.70;69.90;;;;;;5015600;28;20049;-66
2023/06/08 05:46:39;;;;;;;16.77;9.35;;;14.90;70.00;;;;;;4995700;28;20133;-71
2023/06/08 05:49:05;;;;;;;13.88;8.70;;;15.10;69.70;;;;;;5009274;28;20068;-67
2023/06/08 05:51:31;;;;;;;14.43;8.65;;;15.40;69.40;;;;;;5013316;28;20077;-67
2023/06/08 05:53:57;;;;;;;13.07;7.47;;;15.60;68.80;;;;;;5021741;28;20084;-67
2023/06/08 05:56:26;;;;;;;17.20;9.15;;;15.90;68.20;;;;;;5013259;28;20481;-67
2023/06/08 05:58:52;;;;;;;14.20;7.80;;;16.10;67.50;;;;;;5011916;28;20049;-67
2023/06/08 06:01:19;;;;;;;14.63;7.90;;;16.40;66.70;;;;;;5016854;28;20046;-67
2023/06/08 06:03:45;;;;;;;12.70;7.30;;;16.80;66.50;;;;;;5005877;28;20080;-67
2023/06/08 06:06:11;;;;;;;12.75;7.57;;;17.00;65.10;;;;;;5031679;28;20045;-67
2023/06/08 06:08:37;;;;;;;13.93;8.07;;;17.40;64.00;;;;;;5030611;28;20052;-67
2023/06/08 06:11:03;;;;;;;12.10;7.53;;;17.70;62.70;;;;;;5016660;28;20037;-67
2023/06/08 06:13:28;;;;;;;10.77;7.53;;;17.90;61.20;;;;;;5013128;28;20389;-68
2023/06/08 06:15:54;;;;;;;11.82;7.57;;;18.00;60.30;;;;;;5024700;28;20512;-68
2023/06/08 06:18:20;;;;;;;15.32;7.55;;;18.20;60.40;;;;;;5031028;28;20566;-68
2023/06/08 06:20:45;;;;;;;13.05;7.65;;;18.50;59.90;;;;;;5014744;28;20052;-68
2023/06/08 06:23:11;;;;;;;11.23;7.28;;;18.60;58.70;;;;;;4995763;28;20076;-68
2023/06/08 06:25:37;;;;;;;12.93;7.07;;;18.70;58.10;;;;;;5012012;28;20061;-68
2023/06/08 06:28:03;;;;;;;11.77;6.75;;;18.80;57.50;;;;;;5018583;28;20575;-68
2023/06/08 06:30:29;;;;;;;14.25;6.75;;;18.90;57.60;;;;;;5020788;28;20073;-68
2023/06/08 06:32:54;;;;;;;12.93;6.13;;;19.00;57.60;;;;;;5011647;28;20100;-68
2023/06/08 06:35:20;;;;;;;10.27;6.47;;;19.10;56.90;;;;;;5027292;28;20424;-68
2023/06/08 06:37:46;;;;;;;14.65;7.50;;;19.20;56.50;;;;;;5032229;28;20034;-67
2023/06/08 06:40:12;;;;;;;13.00;5.43;;;19.20;56.10;;;;;;5032376;28;20033;-68
2023/06/08 06:42:39;;;;;;;10.63;6.03;;;19.20;56.00;;;;;;5031423;28;20511;-68
2023/06/08 06:45:05;;;;;;;9.45;4.97;;;19.20;56.40;;;;;;5031352;28;20058;-68
2023/06/08 06:47:31;;;;;;;9.02;5.90;;;19.30;56.30;;;;;;5032014;28;20128;-68
2023/06/08 06:49:56;;;;;;;11.73;5.15;;;19.50;56.50;;;;;;5033638;28;20133;-68
2023/06/08 06:52:22;;;;;;;11.07;5.53;;;19.70;56.40;;;;;;5035682;28;20041;-68
2023/06/08 06:54:48;;;;;;;10.88;5.15;;;19.90;55.60;;;;;;5035172;28;20045;-68
2023/06/08 06:57:13;;;;;;;9.77;4.82;;;20.00;54.60;;;;;;5036495;28;20097;-68
2023/06/08 06:59:40;;;;;;;11.90;5.47;;;20.20;55.00;;;;;;5035133;28;20396;-68
2023/06/08 07:02:06;;;;;;;11.18;4.80;;;20.30;54.40;;;;;;5051794;28;20045;-67
2023/06/08 07:04:32;;;;;;;10.77;4.88;;;20.40;54.10;;;;;;5031244;28;20045;-67
2023/06/08 07:06:58;;;;;;;8.93;4.55;;;20.40;54.10;;;;;;5034365;28;20485;-67
2023/06/08 07:09:24;;;;;;;9.25;4.50;;;20.40;54.30;;;;;;5015270;28;20126;-67
2023/06/08 07:11:51;;;;;;;12.63;5.05;;;20.60;54.10;;;;;;5016376;28;20503;-67
2023/06/08 07:14:17;;;;;;;10.50;4.93;;;20.80;54.20;;;;;;5016222;28;20362;-67
2023/06/08 07:16:42;;;;;;;11.40;4.80;;;21.00;53.70;;;;;;5016565;28;20045;-67
2023/06/08 07:19:08;;;;;;;11.07;4.95;;;21.10;52.30;;;;;;5016219;28;20501;-67
2023/06/08 07:21:38;;;;;;;15.57;5.78;;;21.20;51.30;;;;;;5022370;28;20053;-67
2023/06/08 07:24:05;;;;;;;11.15;4.88;;;21.20;51.30;;;;;;5014826;28;20117;-67
2023/06/08 07:26:30;;;;;;;13.05;6.10;;;21.20;51.10;;;;;;5014695;28;20432;-67
2023/06/08 07:28:57;;;;;;;9.48;4.45;;;21.10;51.20;;;;;;5014718;28;20046;-68
2023/06/08 07:31:23;;;;;;;11.95;4.55;;;21.00;51.80;;;;;;5015953;28;20440;-68
2023/06/08 07:33:50;;;;;;;9.35;4.65;;;21.10;51.90;;;;;;5015915;28;20120;-67
2023/06/08 07:36:16;;;;;;;8.35;4.68;;;21.20;51.70;;;;;;5015962;28;20064;-67
2023/06/08 07:38:42;;;;;;;9.90;4.63;;;21.30;51.40;;;;;;5017081;28;20038;-67
2023/06/08 07:41:07;;;;;;;9.55;5.05;;;21.40;51.60;;;;;;5015792;28;20451;-67
2023/06/08 07:43:33;;;;;;;9.57;4.43;;;21.40;51.00;;;;;;5015693;28;20042;-67
2023/06/08 07:45:59;;;;;;;11.40;4.63;;;21.50;51.20;;;;;;5014638;28;20052;-67
2023/06/08 07:48:25;;;;;;;10.43;5.55;;;21.60;51.20;;;;;;5014291;28;20398;-66
2023/06/08 07:50:50;;;;;;;9.57;4.60;;;21.70;51.10;;;;;;5015483;28;20042;-66
2023/06/08 07:53:17;;;;;;;8.80;4.60;;;21.80;50.70;;;;;;5006632;28;20033;-66
2023/06/08 07:55:43;;;;;;;10.00;5.20;;;22.00;50.10;;;;;;5033666;28;20049;-66
2023/06/08 07:58:09;;;;;;;10.27;4.22;;;22.00;50.30;;;;;;5033646;28;20041;-66
2023/06/08 08:00:35;;;;;;;8.32;4.68;;;22.10;50.00;;;;;;5035041;28;20045;-66
2023/06/08 08:03:03;;;;;;;11.68;5.03;;;22.30;49.60;;;;;;5030787;28;20029;-66
2023/06/08 08:05:30;;;;;;;7.95;4.32;;;22.40;49.00;;;;;;5035206;28;20056;-67
2023/06/08 08:07:56;;;;;;;9.05;4.53;;;22.50;48.90;;;;;;5033835;28;20088;-67
2023/06/08 08:10:22;;;;;;;9.73;5.18;;;22.60;48.80;;;;;;5033671;28;20072;-67
2023/06/08 08:12:47;;;;;;;13.48;4.78;;;22.80;48.10;;;;;;5032492;28;20448;-67
2023/06/08 08:15:13;;;;;;;10.10;4.75;;;22.90;47.60;;;;;;5033514;28;20045;-67
2023/06/08 08:17:40;;;;;;;8.32;4.22;;;22.90;47.70;;;;;;5029946;28;20061;-67
2023/06/08 08:20:07;;;;;;;11.95;4.90;;;23.00;48.10;;;;;;5015098;28;20037;-68
2023/06/08 08:22:33;;;;;;;10.98;5.20;;;23.10;47.90;;;;;;5013705;28;20042;-68
2023/06/08 08:24:59;;;;;;;8.32;3.63;;;23.20;47.70;;;;;;5021446;28;20041;-68
2023/06/08 08:27:25;;;;;;;9.05;4.30;;;23.30;47.50;;;;;;5033491;28;20038;-68
2023/06/08 08:29:51;;;;;;;10.23;3.95;;;23.40;47.30;;;;;;5018445;28;20038;-68
2023/06/08 08:32:16;;;;;;;8.75;3.72;;;23.50;46.70;;;;;;5029126;28;20060;-68
2023/06/08 08:34:42;;;;;;;11.35;4.43;;;23.60;47.10;;;;;;5032223;28;20486;-69
2023/06/08 08:37:08;;;;;;;8.55;3.70;;;23.70;46.10;;;;;;5018459;28;20045;-68
2023/06/08 08:39:34;;;;;;;8.38;3.95;;;23.80;46.20;;;;;;5015498;28;20124;-68
2023/06/08 08:42:06;;;;;;;10.30;4.78;;;23.80;45.70;;;;;;5017413;28;20045;-68
2023/06/08 08:44:33;;;;;;;7.03;3.40;;;23.90;45.30;;;;;;5013618;28;20049;-68
2023/06/08 08:47:02;;;;;;;8.20;4.30;;;23.90;45.50;;;;;;5031743;28;20045;-68
2023/06/08 08:49:32;;;;;;;13.27;5.35;;;24.00;45.40;;;;;;5033352;28;20042;-69
2023/06/08 08:52:01;;;;;;;11.93;4.95;;;24.10;44.00;;;;;;5033188;28;20072;-69
2023/06/08 08:54:34;;;;;;;9.90;4.85;;;24.10;44.60;;;;;;5031806;28;20052;-67
2023/06/08 08:57:01;;;;;;;7.88;4.45;;;24.20;44.90;;;;;;5031889;28;20045;-68
2023/06/08 08:59:28;;;;;;;12.15;4.53;;;24.30;44.60;;;;;;5048417;28;20046;-68
2023/06/08 09:01:55;;;;;;;7.65;4.07;;;24.40;44.80;;;;;;5031921;28;20374;-68
2023/06/08 09:04:20;;;;;;;7.05;3.90;;;24.50;44.30;;;;;;5033257;28;20424;-68
2023/06/08 09:06:55;;;;;;;9.60;4.47;;;24.60;44.40;;;;;;5033536;28;20067;-68
2023/06/08 09:09:21;;;;;;;7.72;3.28;;;24.70;44.10;;;;;;4998625;28;20514;-68
2023/06/08 09:11:59;;;;;;;8.40;4.55;;;24.80;44.20;;;;;;5032472;28;20046;-69
2023/06/08 09:14:26;;;;;;;7.57;4.15;;;24.80;43.90;;;;;;5031675;28;20056;-69
2023/06/08 09:16:53;;;;;;;8.65;3.50;;;24.90;43.20;;;;;;5031742;28;20042;-69
2023/06/08 09:19:19;;;;;;;10.13;4.53;;;25.00;43.10;;;;;;5023885;28;20385;-67
2023/06/08 09:21:45;;;;;;;9.40;4.50;;;25.10;43.40;;;;;;4999741;28;20046;-69
2023/06/08 09:24:14;;;;;;;10.95;4.18;;;25.30;42.90;;;;;;4993769;28;20506;-68
2023/06/08 09:26:50;;;;;;;8.15;4.03;;;25.40;42.40;;;;;;5009251;28;20050;-68
2023/06/08 09:29:44;;;;;;;7.97;3.90;;;25.60;42.20;;;;;;5020355;28;20045;-66
2023/06/08 09:32:16;;;;;;;8.27;4.13;;;25.70;42.20;;;;;;4993626;28;1133798;-65
2023/06/08 09:34:58;;;;;;;9.88;3.92;;;25.80;41.30;;;;;;4992745;28;20085;-66
2023/06/08 09:37:31;;;;;;;8.05;3.97;;;25.80;41.60;;;;;;5012524;28;20052;-67
2023/06/08 09:39:58;;;;;;;11.60;5.10;;;25.80;41.30;;;;;;5048702;28;20056;-68
2023/06/08 09:42:42;;;;;;;7.65;4.18;;;25.90;41.60;;;;;;5032140;28;20045;-68
2023/06/08 09:45:12;;;;;;;8.95;3.58;;;25.90;41.40;;;;;;5026757;28;20045;-68
2023/06/08 09:47:38;;;;;;;8.20;4.25;;;26.00;40.50;;;;;;5012286;28;20052;-68
2023/06/08 09:50:09;;;;;;;8.40;3.90;;;26.00;40.40;;;;;;5012548;28;20045;-68
2023/06/08 09:52:37;;;;;;;9.30;4.22;;;25.90;40.70;;;;;;5013531;28;20433;-68
2023/06/08 09:55:03;;;;;;;10.02;4.05;;;26.00;41.00;;;;;;5012129;28;20192;-68
2023/06/08 09:57:36;;;;;;;7.47;3.90;;;26.00;40.80;;;;;;5012545;28;20160;-68
2023/06/08 10:00:20;;;;;;;8.55;4.57;;;26.10;39.90;;;;;;5009405;28;20537;-68
2023/06/08 10:03:14;;;;;;;9.77;4.00;;;26.20;39.80;;;;;;5008435;28;20136;-68
2023/06/08 10:05:42;;;;;;;;;;;26.20;39.90;;;;;;5006991;28;20049;-68
2023/06/08 10:08:12;;;;;;;7.82;3.60;;;26.20;40.40;;;;;;5009068;28;19999;-68
2023/06/08 10:10:39;;;;;;;9.75;4.13;;;26.20;39.80;;;;;;5007244;28;20049;-68
2023/06/08 10:13:05;;;;;;;7.15;3.40;;;26.30;39.50;;;;;;4988834;28;20048;-68
2023/06/08 10:15:32;;;;;;;10.27;5.25;;;26.20;39.70;;;;;;5007910;28;20034;-68
2023/06/08 10:17:59;;;;;;;8.75;3.75;;;26.20;40.10;;;;;;5007088;28;20201;-68
2023/06/08 10:20:27;;;;;;;9.05;3.58;;;26.30;40.00;;;;;;5008165;28;20030;-68
2023/06/08 10:22:53;;;;;;;9.23;4.10;;;26.20;39.70;;;;;;5005700;28;20054;-68
2023/06/08 10:25:20;;;;;;;11.02;4.68;;;26.20;40.30;;;;;;4989567;28;20129;-68
2023/06/08 10:27:48;;;;;;;9.20;4.60;;;26.30;40.20;;;;;;5006862;28;20049;-68
2023/06/08 10:30:42;;;;;;;9.27;3.92;;;26.30;40.30;;;;;;5005684;28;20033;-68
2023/06/08 10:33:08;;;;;;;;;;;26.30;40.30;;;;;;5007525;28;20504;-68
2023/06/08 10:35:34;;;;;;;10.18;4.28;;;26.20;40.60;;;;;;5005376;28;19921;-68
2023/06/08 10:38:12;;;;;;;11.77;4.40;;;26.20;39.50;;;;;;5005629;28;20053;-68
2023/06/08 10:40:49;;;;;;;10.52;5.05;;;26.10;39.30;;;;;;5022614;28;20049;-68
2023/06/08 10:43:15;;;;;;;7.43;3.88;;;26.00;39.70;;;;;;5007622;28;20113;-68
2023/06/08 10:45:44;;;;;;;8.88;4.03;;;25.90;40.00;;;;;;5006826;28;20081;-68
2023/06/08 10:48:18;;;;;;;8.05;3.97;;;26.00;39.60;;;;;;5006818;28;20048;-68
2023/06/08 10:50:45;;;;;;;7.07;4.10;;;26.00;39.70;;;;;;5005876;28;20045;-68
2023/06/08 10:53:12;;;;;;;10.70;4.80;;;26.10;40.00;;;;;;5005945;28;20481;-68
2023/06/08 10:55:37;;;;;;;11.80;4.57;;;26.20;40.10;;;;;;5000002;28;20042;-68
2023/06/08 10:58:19;;;;;;;10.27;4.55;;;26.20;39.90;;;;;;5005866;28;20037;-68
2023/06/08 11:00:49;;;;;;;6.85;3.97;;;26.20;39.80;;;;;;5007055;28;20096;-68
2023/06/08 11:03:20;;;;;;;11.57;5.35;;;26.20;40.40;;;;;;5007545;28;20034;-68
2023/06/08 11:05:53;;;;;;;9.18;4.28;;;26.30;40.70;;;;;;5005963;28;20117;-69
2023/06/08 11:08:19;;;;;;;;;;;26.30;40.00;;;;;;5006762;28;20164;-69
2023/06/08 11:10:52;;;;;;;11.23;4.78;;;26.30;40.00;;;;;;5006753;28;20012;-68
2023/06/08 11:13:18;;;;;;;10.77;5.10;;;26.30;40.10;;;;;;5005871;28;20052;-68
2023/06/08 11:15:46;;;;;;;10.68;5.07;;;26.30;40.20;;;;;;5005420;28;20128;-65
2023/06/08 11:18:12;;;;;;;10.48;5.20;;;26.30;40.00;;;;;;5006532;28;20076;-65
2023/06/08 11:20:42;;;;;;;7.55;3.78;;;26.40;40.30;;;;;;5005685;28;20069;-65
2023/06/08 11:23:12;;;;;;;8.80;4.57;;;26.50;40.40;;;;;;5006896;28;20052;-65
2023/06/08 11:25:39;;;;;;;11.70;4.80;;;26.60;40.50;;;;;;5005149;28;20052;-65
2023/06/08 11:28:07;;;;;;;9.10;4.38;;;26.70;40.20;;;;;;5006381;28;20074;-65
2023/06/08 11:30:36;;;;;;;7.60;4.38;;;26.80;39.60;;;;;;5005569;28;20581;-65
2023/06/08 11:33:07;;;;;;;12.45;5.18;;;26.80;39.60;;;;;;5005827;28;20061;-65
2023/06/08 11:35:35;;;;;;;8.50;4.80;;;26.80;39.60;;;;;;5006932;28;20050;-65
2023/06/08 11:38:02;;;;;;;11.40;5.38;;;26.90;39.40;;;;;;5008396;28;20041;-66
2023/06/08 11:40:30;;;;;;;13.25;4.60;;;26.90;39.50;;;;;;5008737;28;20046;-65
2023/06/08 11:42:57;;;;;;;13.80;5.95;;;26.90;40.00;;;;;;5008794;28;20462;-65
2023/06/08 11:45:23;;;;;;;9.57;4.65;;;26.90;39.60;;;;;;5009834;28;20469;-65
2023/06/08 11:47:54;;;;;;;9.80;5.28;;;26.90;39.70;;;;;;5009895;28;20052;-65
2023/06/08 11:50:20;;;;;;;8.05;4.65;;;26.80;39.90;;;;;;5008632;28;20116;-65
2023/06/08 11:52:47;;;;;;;8.82;4.10;;;26.80;40.10;;;;;;5009721;28;20038;-65
2023/06/08 11:55:17;;;;;;;10.90;4.45;;;26.80;40.40;;;;;;5008227;28;20104;-65
2023/06/08 11:57:51;;;;;;;13.35;5.38;;;26.80;40.40;;;;;;5008498;28;20077;-65
2023/06/08 12:00:28;;;;;;;11.52;4.40;;;26.80;40.80;;;;;;5009219;28;20117;-65
2023/06/08 12:02:56;;;;;;;10.15;4.95;;;26.90;40.00;;;;;;5009373;28;20037;-65
2023/06/08 12:05:31;;;;;;;9.10;4.35;;;26.90;39.90;;;;;;5008465;28;20520;-65
2023/06/08 12:08:14;;;;;;;11.30;4.70;;;26.90;39.90;;;;;;5009052;28;20083;-65
2023/06/08 12:10:46;;;;;;;10.82;5.00;;;27.00;39.50;;;;;;5007894;28;20077;-65
2023/06/08 12:13:18;;;;;;;12.15;4.75;;;27.00;39.70;;;;;;5010409;28;20045;-65
2023/06/08 12:15:50;;;;;;;10.95;5.00;;;27.00;39.70;;;;;;5009508;28;21476;-65
2023/06/08 12:18:17;;;;;;;9.88;4.60;;;27.00;39.10;;;;;;5009211;28;20045;-66
2023/06/08 12:20:51;;;;;;;9.35;4.68;;;26.90;39.80;;;;;;5008156;28;20060;-66
2023/06/08 12:23:16;;;;;;;12.60;5.43;;;26.90;39.70;;;;;;5009875;28;20504;-66
2023/06/08 12:25:43;;;;;;;9.77;4.63;;;27.00;40.00;;;;;;5006978;28;20057;-66
2023/06/08 12:28:19;;;;;;;8.75;4.10;;;27.00;39.80;;;;;;5008939;28;20117;-66
2023/06/08 12:30:45;;;;;;;7.97;3.45;;;26.90;40.70;;;;;;5009293;28;20045;-66
2023/06/08 12:33:17;;;;;;;10.38;4.10;;;27.00;40.60;;;;;;5008873;28;20432;-66
2023/06/08 12:35:45;;;;;;;6.68;3.72;;;27.00;40.30;;;;;;5007928;28;20038;-67
2023/06/08 12:38:11;;;;;;;7.22;3.95;;;27.00;40.80;;;;;;5007625;28;20041;-66
2023/06/08 12:40:37;;;;;;;7.40;3.55;;;27.10;40.40;;;;;;5007504;28;20088;-66
2023/06/08 12:43:03;;;;;;;6.65;3.78;;;27.10;40.60;;;;;;5009045;28;20517;-66
2023/06/08 12:45:29;;;;;;;7.97;3.97;;;27.10;40.10;;;;;;5008812;28;20086;-66